createdAt,value
2023-02-13T00:00:21.805Z,41.16
2023-02-13T00:02:48.390Z,43.13
2023-02-13T00:05:15.633Z,41.42
2023-02-13T00:07:42.237Z,40.57
2023-02-13T00:10:09.505Z,40.46
2023-02-13T00:12:36.368Z,41.06
2023-02-13T00:15:04.614Z,40.61
2023-02-13T00:17:31.710Z,40.96
2023-02-13T00:19:58.336Z,40.88
2023-02-13T00:22:25.077Z,41.39
2023-02-13T00:24:51.895Z,41.91
2023-02-13T00:27:19.340Z,41.86
2023-02-13T00:29:45.990Z,42.20
2023-02-13T00:32:12.819Z,43.63
2023-02-13T00:34:39.650Z,42.25
2023-02-13T00:37:06.577Z,42.21
2023-02-13T00:39:33.312Z,42.50
2023-02-13T00:41:59.921Z,43.25
2023-02-13T00:44:26.559Z,42.20
2023-02-13T00:46:53.182Z,42.42
2023-02-13T00:49:19.785Z,42.55
2023-02-13T00:51:47.046Z,42.75
2023-02-13T00:54:13.657Z,44.64
2023-02-13T00:56:40.400Z,44.31
2023-02-13T00:59:07.899Z,43.13
2023-02-13T01:01:34.752Z,42.18
2023-02-13T01:04:05.547Z,42.82
2023-02-13T01:06:32.202Z,42.36
2023-02-13T01:08:58.824Z,42.76
2023-02-13T01:11:25.453Z,42.76
2023-02-13T01:13:52.062Z,41.56
2023-02-13T01:16:18.697Z,44.28
2023-02-13T01:18:45.419Z,44.93
2023-02-13T01:21:18.499Z,46.82
2023-02-13T01:23:48.217Z,46.42
2023-02-13T01:26:25.226Z,46.33
2023-02-13T01:28:53.898Z,46.54
2023-02-13T01:31:22.030Z,47.13
2023-02-13T01:33:48.752Z,46.54
2023-02-13T01:36:15.604Z,46.73
2023-02-13T01:38:42.884Z,47.40
2023-02-13T01:41:10.354Z,46.67
2023-02-13T01:43:56.860Z,47.61
2023-02-13T01:46:33.527Z,49.05
2023-02-13T01:49:10.067Z,49.02
2023-02-13T01:51:39.246Z,48.76
2023-02-13T01:54:16.806Z,48.38
2023-02-13T01:57:00.867Z,48.83
2023-02-13T01:59:36.412Z,47.83
2023-02-13T02:02:03.854Z,48.67
2023-02-13T02:04:38.860Z,47.63
2023-02-13T02:07:21.380Z,47.48
2023-02-13T02:09:49.406Z,46.65
2023-02-13T02:12:33.949Z,46.17
2023-02-13T02:15:03.488Z,45.69
2023-02-13T02:17:30.093Z,47.70
2023-02-13T02:20:21.486Z,44.74
2023-02-13T02:23:00.034Z,45.35
2023-02-13T02:26:05.664Z,47.47
2023-02-13T02:28:56.686Z,48.33
2023-02-13T02:31:57.021Z,47.15
2023-02-13T02:34:56.280Z,47.49
2023-02-13T02:37:44.029Z,48.35
2023-02-13T02:40:15.404Z,47.30
2023-02-13T02:43:11.254Z,48.52
2023-02-13T02:45:53.040Z,48.04
2023-02-13T02:48:39.969Z,48.03
2023-02-13T02:51:24.358Z,47.46
2023-02-13T02:54:07.701Z,47.68
2023-02-13T02:56:43.998Z,47.13
2023-02-13T02:59:16.418Z,47.75
2023-02-13T03:01:46.161Z,47.09
2023-02-13T03:04:26.843Z,46.18
2023-02-13T03:07:03.589Z,46.34
2023-02-13T03:09:37.404Z,47.13
2023-02-13T03:12:04.264Z,48.28
2023-02-13T03:14:31.025Z,48.33
2023-02-13T03:16:58.839Z,48.53
2023-02-13T03:19:50.276Z,48.87
2023-02-13T03:22:22.807Z,50.09
2023-02-13T03:25:12.073Z,48.89
2023-02-13T03:27:58.904Z,48.48
2023-02-13T03:30:58.449Z,49.99
2023-02-13T03:33:56.287Z,48.61
2023-02-13T03:36:29.715Z,48.32
2023-02-13T03:39:36.898Z,47.16
2023-02-13T03:42:11.274Z,47.98
2023-02-13T03:44:47.169Z,46.45
2023-02-13T03:47:15.150Z,47.25
2023-02-13T03:49:51.750Z,47.95
2023-02-13T03:52:31.133Z,47.45
2023-02-13T03:55:04.679Z,48.48
2023-02-13T03:57:36.712Z,48.58
2023-02-13T04:00:09.385Z,49.36
2023-02-13T04:02:49.220Z,48.71
2023-02-13T04:05:22.115Z,48.41
2023-02-13T04:07:51.262Z,49.63
2023-02-13T04:10:20.348Z,48.31
2023-02-13T04:13:00.622Z,48.84
2023-02-13T04:15:46.232Z,49.64
2023-02-13T04:18:23.769Z,49.06
2023-02-13T04:20:50.848Z,49.97
2023-02-13T04:23:17.665Z,48.40
2023-02-13T04:25:48.744Z,48.57
2023-02-13T04:28:15.392Z,49.43
2023-02-13T04:30:43.266Z,49.27
2023-02-13T04:33:09.964Z,49.26
2023-02-13T04:35:36.613Z,48.88
2023-02-13T04:38:04.035Z,49.03
2023-02-13T04:40:33.513Z,49.18
2023-02-13T04:43:00.308Z,49.50
2023-02-13T04:45:26.978Z,51.02
2023-02-13T04:47:56.101Z,49.84
2023-02-13T04:50:24.087Z,50.38
2023-02-13T04:52:54.729Z,49.99
2023-02-13T04:55:25.625Z,49.19
2023-02-13T04:57:53.869Z,48.88
2023-02-13T05:00:22.157Z,49.48
2023-02-13T05:02:49.234Z,50.23
2023-02-13T05:05:16.108Z,49.29
2023-02-13T05:07:42.957Z,49.50
2023-02-13T05:10:11.821Z,49.29
2023-02-13T05:12:38.665Z,49.51
2023-02-13T05:15:06.352Z,50.23
2023-02-13T05:17:33.029Z,49.87
2023-02-13T05:19:59.721Z,49.04
2023-02-13T05:22:26.431Z,50.05
2023-02-13T05:24:53.110Z,48.84
2023-02-13T05:27:19.890Z,50.27
2023-02-13T05:29:47.254Z,49.97
2023-02-13T05:32:14.020Z,51.25
2023-02-13T05:34:40.663Z,51.08
2023-02-13T05:37:07.272Z,50.59
2023-02-13T05:39:33.932Z,52.15
2023-02-13T05:42:00.624Z,49.12
2023-02-13T05:44:27.301Z,50.15
2023-02-13T05:46:53.910Z,50.84
2023-02-13T05:49:20.603Z,51.37
2023-02-13T05:51:47.263Z,51.39
2023-02-13T05:54:14.087Z,51.18
2023-02-13T05:56:41.150Z,50.86
2023-02-13T05:59:08.265Z,51.14
2023-02-13T06:01:34.880Z,51.23
2023-02-13T06:04:03.764Z,49.45
2023-02-13T06:06:30.693Z,50.64
2023-02-13T06:08:57.391Z,50.38
2023-02-13T06:11:24.103Z,50.19
2023-02-13T06:13:50.721Z,50.37
2023-02-13T06:16:17.401Z,50.37
2023-02-13T06:18:44.099Z,50.14
2023-02-13T06:21:10.766Z,50.35
2023-02-13T06:23:37.450Z,50.34
2023-02-13T06:26:06.809Z,50.11
2023-02-13T06:28:34.550Z,51.81
2023-02-13T06:31:02.067Z,51.40
2023-02-13T06:33:29.079Z,52.23
2023-02-13T06:35:55.720Z,53.04
2023-02-13T06:38:22.373Z,54.09
2023-02-13T06:40:49.912Z,54.43
2023-02-13T06:43:17.619Z,53.62
2023-02-13T06:45:44.969Z,53.03
2023-02-13T06:48:11.577Z,52.32
2023-02-13T06:50:38.250Z,51.69
2023-02-13T06:53:04.926Z,49.79
2023-02-13T06:55:31.529Z,50.21
2023-02-13T06:57:58.133Z,49.08
2023-02-13T07:00:26.266Z,49.04
2023-02-13T07:02:53.918Z,48.90
2023-02-13T07:05:20.678Z,48.63
2023-02-13T07:07:47.302Z,48.02
2023-02-13T07:10:14.682Z,49.02
2023-02-13T07:12:41.367Z,47.87
2023-02-13T07:15:08.432Z,48.13
2023-02-13T07:17:35.317Z,47.77
2023-02-13T07:20:01.970Z,46.87
2023-02-13T07:22:28.564Z,46.42
2023-02-13T07:24:55.161Z,45.50
2023-02-13T07:27:21.773Z,45.27
2023-02-13T07:29:48.377Z,45.09
2023-02-13T07:32:15.723Z,46.76
2023-02-13T07:34:55.879Z,45.91
2023-02-13T07:37:28.621Z,48.12
2023-02-13T07:39:55.321Z,47.46
2023-02-13T07:42:21.976Z,47.79
2023-02-13T07:44:48.768Z,47.18
2023-02-13T07:47:16.399Z,47.83
2023-02-13T07:49:44.179Z,48.25
2023-02-13T07:52:10.868Z,47.97
2023-02-13T07:54:37.582Z,48.93
2023-02-13T07:57:04.453Z,48.52
2023-02-13T07:59:31.104Z,48.12
2023-02-13T08:01:57.932Z,46.21
2023-02-13T08:04:26.332Z,44.60
2023-02-13T08:06:53.217Z,41.41
2023-02-13T08:09:21.008Z,40.11
2023-02-13T08:11:48.037Z,39.55
2023-02-13T08:14:14.808Z,40.78
2023-02-13T08:16:54.925Z,39.26
2023-02-13T08:19:21.668Z,39.87
2023-02-13T08:21:48.664Z,40.58
2023-02-13T08:24:15.356Z,41.07
2023-02-13T08:26:42.021Z,41.48
2023-02-13T08:29:09.001Z,41.34
2023-02-13T08:31:36.054Z,41.80
2023-02-13T08:34:03.792Z,41.62
2023-02-13T08:36:31.200Z,41.89
2023-02-13T08:38:57.946Z,42.91
2023-02-13T08:41:24.666Z,44.03
2023-02-13T08:43:51.467Z,43.26
2023-02-13T08:46:18.582Z,44.05
2023-02-13T08:48:45.221Z,45.12
2023-02-13T08:51:13.739Z,44.47
2023-02-13T08:53:41.245Z,45.33
2023-02-13T08:56:08.038Z,45.48
2023-02-13T08:58:34.681Z,45.42
2023-02-13T09:01:04.898Z,45.93
2023-02-13T09:03:31.737Z,47.42
2023-02-13T09:06:00.802Z,47.63
2023-02-13T09:08:28.460Z,47.03
2023-02-13T09:11:00.394Z,47.70
2023-02-13T09:13:29.256Z,47.96
2023-02-13T09:16:02.527Z,48.56
2023-02-13T09:18:29.456Z,48.05
2023-02-13T09:21:09.175Z,49.85
2023-02-13T09:23:40.150Z,49.44
2023-02-13T09:26:12.661Z,48.88
2023-02-13T09:28:41.823Z,49.80
2023-02-13T09:31:14.048Z,49.06
2023-02-13T09:33:41.273Z,49.21
2023-02-13T09:36:20.233Z,49.79
2023-02-13T09:38:53.481Z,50.49
2023-02-13T09:41:26.528Z,50.94
2023-02-13T09:43:56.782Z,51.06
2023-02-13T09:46:34.107Z,50.13
2023-02-13T09:49:19.062Z,50.48
2023-02-13T09:51:54.497Z,51.31
2023-02-13T09:54:21.297Z,50.48
2023-02-13T09:56:48.012Z,50.67
2023-02-13T09:59:37.626Z,50.67
2023-02-13T10:02:25.471Z,50.84
2023-02-13T10:05:20.410Z,50.76
2023-02-13T10:08:24.732Z,52.50
2023-02-13T10:11:07.453Z,51.68
2023-02-13T10:13:49.310Z,51.15
2023-02-13T10:16:23.371Z,51.07
2023-02-13T10:19:05.664Z,50.76
2023-02-13T10:21:51.596Z,50.58
2023-02-13T10:24:24.182Z,51.06
2023-02-13T10:26:50.892Z,50.95
2023-02-13T10:29:38.987Z,51.53
2023-02-13T10:32:12.608Z,50.85
2023-02-13T10:34:45.514Z,51.07
2023-02-13T10:37:20.754Z,50.80
2023-02-13T10:39:54.156Z,50.20
2023-02-13T10:42:42.181Z,51.00
2023-02-13T10:45:40.167Z,51.67
2023-02-13T10:48:29.089Z,51.22
2023-02-13T10:51:08.812Z,50.12
2023-02-13T10:53:44.225Z,49.63
2023-02-13T10:56:42.000Z,50.98
2023-02-13T10:59:11.488Z,49.64
2023-02-13T11:01:47.157Z,50.08
2023-02-13T11:04:18.955Z,49.34
2023-02-13T11:07:00.047Z,49.02
2023-02-13T11:09:28.609Z,49.06
2023-02-13T11:11:55.483Z,49.53
2023-02-13T11:14:24.710Z,49.19
2023-02-13T11:16:54.726Z,49.60
2023-02-13T11:19:40.199Z,49.18
2023-02-13T11:22:14.287Z,49.91
2023-02-13T11:24:50.528Z,49.85
2023-02-13T11:27:26.936Z,49.74
2023-02-13T11:30:00.217Z,48.76
2023-02-13T11:32:29.184Z,48.68
2023-02-13T11:34:56.251Z,50.12
2023-02-13T11:37:28.447Z,50.01
2023-02-13T11:39:58.109Z,49.74
2023-02-13T11:42:27.293Z,49.14
2023-02-13T11:45:22.964Z,50.78
2023-02-13T11:47:49.942Z,50.06
2023-02-13T11:50:22.088Z,49.11
2023-02-13T11:53:18.906Z,49.89
2023-02-13T11:56:10.645Z,49.27
2023-02-13T11:58:38.561Z,50.69
2023-02-13T12:01:31.494Z,49.84
2023-02-13T12:04:05.713Z,49.64
2023-02-13T12:06:34.895Z,48.95
2023-02-13T12:09:01.732Z,49.67
2023-02-13T12:11:49.560Z,50.27
2023-02-13T12:14:21.301Z,49.98
2023-02-13T12:17:00.100Z,49.50
2023-02-13T12:19:39.849Z,49.44
2023-02-13T12:22:40.529Z,48.29
2023-02-13T12:25:48.997Z,48.03
2023-02-13T12:28:28.304Z,46.65
2023-02-13T12:31:13.969Z,46.83
2023-02-13T12:34:22.053Z,46.35
2023-02-13T12:37:05.593Z,45.62
2023-02-13T12:39:35.550Z,45.35
2023-02-13T12:42:33.092Z,45.56
2023-02-13T12:45:13.440Z,45.50
2023-02-13T12:48:23.460Z,45.19
2023-02-13T12:51:07.078Z,45.84
2023-02-13T12:53:36.666Z,45.04
2023-02-13T12:56:33.872Z,45.44
2023-02-13T12:59:20.189Z,44.37
2023-02-13T13:02:07.797Z,45.38
2023-02-13T13:05:19.096Z,45.62
2023-02-13T13:08:07.493Z,44.46
2023-02-13T13:10:47.473Z,44.39
2023-02-13T13:13:40.033Z,44.35
2023-02-13T13:16:15.873Z,44.98
2023-02-13T13:19:01.889Z,44.59
2023-02-13T13:21:51.618Z,44.00
2023-02-13T13:24:42.104Z,44.34
2023-02-13T13:27:23.243Z,44.24
2023-02-13T13:30:01.382Z,43.43
2023-02-13T13:32:30.922Z,42.99
2023-02-13T13:34:58.824Z,42.57
2023-02-13T13:37:49.013Z,41.93
2023-02-13T13:40:28.185Z,42.47
2023-02-13T13:43:15.065Z,42.50
2023-02-13T13:46:21.957Z,42.61
2023-02-13T13:49:05.110Z,41.40
2023-02-13T13:51:31.795Z,42.05
2023-02-13T13:54:02.971Z,42.89
2023-02-13T13:56:54.186Z,42.60
2023-02-13T13:59:46.371Z,42.77
2023-02-13T14:02:18.699Z,42.57
2023-02-13T14:05:12.629Z,42.08
2023-02-13T14:07:41.729Z,40.85
2023-02-13T14:10:20.523Z,40.64
2023-02-13T14:13:00.620Z,40.75
2023-02-13T14:15:36.390Z,39.97
2023-02-13T14:18:14.869Z,40.49
2023-02-13T14:20:47.330Z,39.27
2023-02-13T14:23:36.900Z,37.89
2023-02-13T14:26:17.138Z,38.42
2023-02-13T14:28:49.688Z,38.08
2023-02-13T14:31:22.034Z,36.54
2023-02-13T14:34:08.095Z,36.81
2023-02-13T14:36:48.528Z,36.81
2023-02-13T14:39:27.644Z,35.59
2023-02-13T14:41:54.241Z,35.34
2023-02-13T14:44:39.054Z,34.75
2023-02-13T14:47:26.874Z,34.57
2023-02-13T14:49:56.782Z,34.82
2023-02-13T14:52:28.026Z,34.85
2023-02-13T14:55:04.777Z,35.47
2023-02-13T14:57:43.236Z,35.20
2023-02-13T15:00:18.803Z,35.36
2023-02-13T15:02:53.120Z,35.54
2023-02-13T15:05:21.254Z,36.52
2023-02-13T15:07:59.067Z,35.93
2023-02-13T15:10:45.180Z,35.67
2023-02-13T15:13:24.069Z,36.60
2023-02-13T15:15:55.358Z,35.89
2023-02-13T15:18:27.032Z,36.16
2023-02-13T15:20:56.829Z,36.18
2023-02-13T15:23:29.839Z,36.84
2023-02-13T15:26:02.849Z,36.64
2023-02-13T15:28:30.514Z,36.52
2023-02-13T15:31:01.956Z,37.45
2023-02-13T15:33:34.486Z,37.38
2023-02-13T15:36:04.906Z,37.44
2023-02-13T15:38:34.882Z,38.09
2023-02-13T15:41:07.085Z,37.45
2023-02-13T15:43:33.635Z,37.81
2023-02-13T15:46:08.561Z,37.43
2023-02-13T15:48:35.630Z,37.77
2023-02-13T15:51:02.929Z,38.00
2023-02-13T15:53:29.599Z,38.31
2023-02-13T15:56:05.892Z,38.75
2023-02-13T15:58:34.770Z,38.85
2023-02-13T16:01:07.301Z,38.87
2023-02-13T16:03:36.244Z,38.96
2023-02-13T16:06:06.536Z,38.99
2023-02-13T16:08:36.724Z,38.35
2023-02-13T16:11:30.906Z,39.11
2023-02-13T16:14:12.697Z,39.47
2023-02-13T16:16:50.471Z,40.04
2023-02-13T16:19:23.201Z,40.00
2023-02-13T16:21:52.227Z,40.24
2023-02-13T16:24:21.216Z,40.74
2023-02-13T16:26:49.388Z,40.01
2023-02-13T16:29:26.772Z,40.39
2023-02-13T16:32:04.788Z,40.07
2023-02-13T16:34:31.989Z,39.95
2023-02-13T16:36:58.618Z,39.55
2023-02-13T16:39:31.934Z,38.50
2023-02-13T16:42:00.501Z,39.62
2023-02-13T16:44:28.798Z,40.27
2023-02-13T16:47:02.855Z,39.64
2023-02-13T16:49:34.161Z,40.07
2023-02-13T16:52:17.725Z,39.58
2023-02-13T16:54:44.298Z,39.16
2023-02-13T16:57:13.861Z,40.14
2023-02-13T16:59:49.338Z,41.64
2023-02-13T17:02:36.316Z,40.77
2023-02-13T17:05:08.886Z,44.08
2023-02-13T17:07:47.308Z,41.71
2023-02-13T17:10:24.680Z,41.28
2023-02-13T17:12:51.562Z,40.48
2023-02-13T17:15:21.976Z,42.69
2023-02-13T17:17:51.066Z,40.38
2023-02-13T17:20:20.920Z,39.39
2023-02-13T17:22:50.439Z,39.25
2023-02-13T17:25:30.197Z,37.00
2023-02-13T17:28:00.731Z,36.46
2023-02-13T17:30:33.189Z,36.31
2023-02-13T17:33:07.709Z,36.04
2023-02-13T17:35:34.597Z,35.87
2023-02-13T17:38:01.261Z,36.23
2023-02-13T17:40:28.092Z,36.18
2023-02-13T17:42:56.268Z,35.76
2023-02-13T17:45:25.727Z,34.86
2023-02-13T17:47:53.458Z,35.44
2023-02-13T17:50:21.069Z,34.32
2023-02-13T17:52:48.403Z,34.03
2023-02-13T17:55:24.744Z,33.03
2023-02-13T17:57:53.886Z,33.39
2023-02-13T18:00:21.413Z,33.63
2023-02-13T18:02:50.080Z,32.23
2023-02-13T18:05:18.821Z,32.41
2023-02-13T18:07:46.963Z,32.70
2023-02-13T18:10:23.961Z,33.22
2023-02-13T18:12:52.692Z,32.37
2023-02-13T18:15:20.250Z,32.67
2023-02-13T18:17:47.584Z,33.89
2023-02-13T18:20:19.500Z,33.67
2023-02-13T18:22:46.353Z,34.54
2023-02-13T18:25:13.899Z,35.12
2023-02-13T18:27:40.660Z,36.08
2023-02-13T18:30:08.950Z,35.87
2023-02-13T18:32:35.660Z,36.51
2023-02-13T18:35:02.293Z,36.43
2023-02-13T18:37:29.137Z,37.00
2023-02-13T18:39:56.635Z,36.85
2023-02-13T18:42:23.363Z,37.46
2023-02-13T18:44:50.010Z,37.93
2023-02-13T18:47:22.467Z,37.29
2023-02-13T18:49:49.691Z,38.67
2023-02-13T18:52:16.560Z,39.07
2023-02-13T18:54:43.258Z,39.70
2023-02-13T18:57:09.914Z,40.34
2023-02-13T18:59:36.665Z,40.24
2023-02-13T19:02:04.375Z,40.32
2023-02-13T19:04:31.810Z,39.64
2023-02-13T19:06:59.658Z,40.05
2023-02-13T19:09:26.311Z,40.28
2023-02-13T19:11:52.934Z,39.60
2023-02-13T19:14:19.590Z,39.96
2023-02-13T19:16:46.225Z,39.11
2023-02-13T19:19:12.968Z,38.87
2023-02-13T19:21:40.058Z,39.14
2023-02-13T19:24:09.286Z,39.39
2023-02-13T19:26:36.865Z,39.62
2023-02-13T19:29:04.124Z,39.71
2023-02-13T19:31:32.944Z,39.15
2023-02-13T19:34:00.084Z,38.68
2023-02-13T19:36:28.932Z,39.16
2023-02-13T19:39:06.499Z,38.05
2023-02-13T19:41:33.280Z,38.98
2023-02-13T19:44:00.238Z,40.18
2023-02-13T19:46:29.373Z,40.46
2023-02-13T19:48:57.089Z,40.85
2023-02-13T19:51:29.534Z,41.09
2023-02-13T19:54:00.686Z,40.34
2023-02-13T19:56:29.003Z,40.32
2023-02-13T19:58:56.281Z,40.09
2023-02-13T20:01:25.447Z,39.47
2023-02-13T20:03:52.270Z,38.64
2023-02-13T20:06:26.289Z,39.08
2023-02-13T20:08:53.031Z,37.87
2023-02-13T20:11:21.951Z,37.45
2023-02-13T20:13:53.193Z,37.24
2023-02-13T20:16:19.826Z,38.57
2023-02-13T20:18:46.581Z,37.97
2023-02-13T20:21:16.091Z,37.62
2023-02-13T20:23:47.406Z,37.97
2023-02-13T20:26:15.032Z,37.93
2023-02-13T20:28:43.928Z,38.38
2023-02-13T20:31:14.111Z,40.49
2023-02-13T20:33:41.894Z,41.11
2023-02-13T20:36:29.589Z,41.03
2023-02-13T20:38:59.337Z,41.22
2023-02-13T20:41:30.478Z,43.34
2023-02-13T20:44:01.542Z,42.40
2023-02-13T20:46:39.868Z,41.52
2023-02-13T20:49:06.880Z,42.64
2023-02-13T20:51:34.694Z,42.90
2023-02-13T20:54:01.852Z,44.51
2023-02-13T20:56:28.527Z,44.81
2023-02-13T20:58:58.125Z,46.01
2023-02-13T21:01:24.752Z,46.62
2023-02-13T21:03:53.502Z,45.32
2023-02-13T21:06:26.887Z,48.77
2023-02-13T21:08:53.624Z,45.52
2023-02-13T21:11:21.767Z,44.66
2023-02-13T21:13:49.249Z,43.53
2023-02-13T21:16:22.631Z,42.92
2023-02-13T21:18:54.924Z,42.25
2023-02-13T21:21:23.539Z,42.42
2023-02-13T21:23:55.484Z,41.03
2023-02-13T21:26:22.931Z,43.08
2023-02-13T21:28:50.780Z,42.51
2023-02-13T21:31:25.164Z,42.36
2023-02-13T21:33:52.196Z,42.31
2023-02-13T21:36:18.863Z,43.03
2023-02-13T21:38:45.524Z,43.14
2023-02-13T21:41:15.497Z,43.25
2023-02-13T21:43:43.312Z,43.48
2023-02-13T21:46:12.727Z,43.56
2023-02-13T21:48:41.224Z,43.53
2023-02-13T21:51:10.743Z,44.39
2023-02-13T21:53:38.930Z,43.75
2023-02-13T21:56:09.008Z,43.44
2023-02-13T21:58:37.122Z,43.20
2023-02-13T22:01:20.557Z,43.54
2023-02-13T22:03:53.342Z,44.92
2023-02-13T22:06:20.290Z,46.41
2023-02-13T22:08:47.927Z,44.22
2023-02-13T22:11:16.194Z,43.98
2023-02-13T22:13:43.038Z,43.15
2023-02-13T22:16:14.202Z,44.11
2023-02-13T22:18:45.415Z,42.02
2023-02-13T22:21:18.920Z,42.74
2023-02-13T22:23:47.622Z,43.17
2023-02-13T22:26:22.025Z,43.14
2023-02-13T22:28:49.301Z,42.99
2023-02-13T22:31:17.966Z,43.23
2023-02-13T22:33:52.424Z,43.96
2023-02-13T22:36:25.891Z,44.71
2023-02-13T22:38:53.477Z,44.64
2023-02-13T22:41:25.842Z,44.49
2023-02-13T22:43:52.817Z,45.59
2023-02-13T22:46:25.374Z,45.78
2023-02-13T22:48:53.158Z,46.00
2023-02-13T22:51:24.839Z,45.66
2023-02-13T22:53:56.887Z,44.93
2023-02-13T22:56:27.173Z,45.49
2023-02-13T22:58:54.199Z,45.60
2023-02-13T23:01:23.586Z,45.09
2023-02-13T23:03:50.648Z,46.76
2023-02-13T23:06:18.192Z,46.99
2023-02-13T23:08:45.439Z,46.37
2023-02-13T23:11:16.857Z,46.56
2023-02-13T23:13:48.176Z,45.32
2023-02-13T23:16:16.025Z,45.16
2023-02-13T23:18:44.737Z,44.57
2023-02-13T23:21:11.347Z,45.12
2023-02-13T23:23:38.323Z,46.35
2023-02-13T23:26:06.535Z,49.73
2023-02-13T23:28:33.781Z,50.52
2023-02-13T23:31:01.991Z,50.98
2023-02-13T23:33:30.040Z,50.51
2023-02-13T23:35:56.918Z,50.40
2023-02-13T23:38:23.593Z,48.73
2023-02-13T23:40:50.400Z,46.60
2023-02-13T23:43:17.124Z,47.93
2023-02-13T23:45:43.717Z,45.95
2023-02-13T23:48:10.388Z,47.02
2023-02-13T23:50:37.009Z,48.52
2023-02-13T23:53:03.641Z,49.16
2023-02-13T23:55:30.264Z,49.40
2023-02-13T23:57:56.898Z,50.81
